sensor_id;sensor_type;location;lat;lon;timestamp;P1;durP1;ratioP1;P2;durP2;ratioP2
21270;SDS011;10795;50.796;3.860;2022-08-06T00:00:32;2.47;;;1.20;;
21270;SDS011;10795;50.796;3.860;2022-08-06T00:02:58;7.65;;;1.42;;
21270;SDS011;10795;50.796;3.860;2022-08-06T00:05:24;5.78;;;1.40;;
21270;SDS011;10795;50.796;3.860;2022-08-06T00:07:51;7.88;;;0.93;;
21270;SDS011;10795;50.796;3.860;2022-08-06T00:10:17;2.47;;;0.90;;
21270;SDS011;10795;50.796;3.860;2022-08-06T00:12:44;3.33;;;0.90;;
21270;SDS011;10795;50.796;3.860;2022-08-06T00:15:11;4.80;;;1.25;;
21270;SDS011;10795;50.796;3.860;2022-08-06T00:17:37;2.28;;;0.70;;
21270;SDS011;10795;50.796;3.860;2022-08-06T00:20:04;2.85;;;1.00;;
21270;SDS011;10795;50.796;3.860;2022-08-06T00:22:33;3.15;;;1.02;;
21270;SDS011;10795;50.796;3.860;2022-08-06T00:24:59;2.05;;;1.25;;
21270;SDS011;10795;50.796;3.860;2022-08-06T00:27:24;3.20;;;1.30;;
21270;SDS011;10795;50.796;3.860;2022-08-06T00:29:50;2.45;;;1.10;;
21270;SDS011;10795;50.796;3.860;2022-08-06T00:32:16;0.98;;;0.70;;
21270;SDS011;10795;50.796;3.860;2022-08-06T00:34:42;2.25;;;1.00;;
21270;SDS011;10795;50.796;3.860;2022-08-06T00:37:07;1.92;;;1.00;;
21270;SDS011;10795;50.796;3.860;2022-08-06T00:39:33;4.32;;;1.33;;
21270;SDS011;10795;50.796;3.860;2022-08-06T00:41:59;3.63;;;1.35;;
21270;SDS011;10795;50.796;3.860;2022-08-06T00:44:25;3.38;;;1.00;;
21270;SDS011;10795;50.796;3.860;2022-08-06T00:46:50;2.58;;;0.70;;
21270;SDS011;10795;50.796;3.860;2022-08-06T00:49:17;3.30;;;1.13;;
21270;SDS011;10795;50.796;3.860;2022-08-06T00:51:43;2.95;;;0.77;;
21270;SDS011;10795;50.796;3.860;2022-08-06T00:54:09;5.00;;;1.40;;
21270;SDS011;10795;50.796;3.860;2022-08-06T00:56:35;3.95;;;1.10;;
21270;SDS011;10795;50.796;3.860;2022-08-06T00:59:01;2.97;;;1.27;;
21270;SDS011;10795;50.796;3.860;2022-08-06T01:01:26;2.38;;;1.10;;
21270;SDS011;10795;50.796;3.860;2022-08-06T01:03:52;2.35;;;1.20;;
21270;SDS011;10795;50.796;3.860;2022-08-06T01:06:19;2.67;;;1.02;;
21270;SDS011;10795;50.796;3.860;2022-08-06T01:08:45;4.60;;;1.10;;
21270;SDS011;10795;50.796;3.860;2022-08-06T01:11:11;2.53;;;1.70;;
21270;SDS011;10795;50.796;3.860;2022-08-06T01:13:37;3.42;;;1.23;;
21270;SDS011;10795;50.796;3.860;2022-08-06T01:16:05;4.40;;;1.17;;
21270;SDS011;10795;50.796;3.860;2022-08-06T01:18:45;1.90;;;1.20;;
21270;SDS011;10795;50.796;3.860;2022-08-06T01:27:00;4.13;;;1.40;;
21270;SDS011;10795;50.796;3.860;2022-08-06T01:29:50;4.20;;;1.10;;
21270;SDS011;10795;50.796;3.860;2022-08-06T01:32:23;4.25;;;1.20;;
21270;SDS011;10795;50.796;3.860;2022-08-06T01:34:56;4.50;;;1.17;;
21270;SDS011;10795;50.796;3.860;2022-08-06T01:40:29;7.20;;;1.20;;
21270;SDS011;10795;50.796;3.860;2022-08-06T01:42:57;6.43;;;1.38;;
21270;SDS011;10795;50.796;3.860;2022-08-06T01:45:28;4.50;;;1.02;;
21270;SDS011;10795;50.796;3.860;2022-08-06T01:47:58;2.92;;;0.98;;
21270;SDS011;10795;50.796;3.860;2022-08-06T01:50:28;3.42;;;1.05;;
21270;SDS011;10795;50.796;3.860;2022-08-06T01:52:59;2.75;;;1.00;;
21270;SDS011;10795;50.796;3.860;2022-08-06T01:55:29;2.27;;;0.93;;
21270;SDS011;10795;50.796;3.860;2022-08-06T01:57:59;3.72;;;1.30;;
21270;SDS011;10795;50.796;3.860;2022-08-06T02:00:27;5.57;;;1.30;;
21270;SDS011;10795;50.796;3.860;2022-08-06T02:02:54;9.00;;;1.52;;
21270;SDS011;10795;50.796;3.860;2022-08-06T02:05:24;3.10;;;1.20;;
21270;SDS011;10795;50.796;3.860;2022-08-06T02:07:53;3.45;;;1.10;;
21270;SDS011;10795;50.796;3.860;2022-08-06T02:10:21;6.82;;;1.20;;
21270;SDS011;10795;50.796;3.860;2022-08-06T02:12:49;3.15;;;1.27;;
21270;SDS011;10795;50.796;3.860;2022-08-06T02:15:21;5.07;;;1.50;;
21270;SDS011;10795;50.796;3.860;2022-08-06T02:17:58;3.95;;;1.02;;
21270;SDS011;10795;50.796;3.860;2022-08-06T02:22:59;3.67;;;1.23;;
21270;SDS011;10795;50.796;3.860;2022-08-06T02:25:28;3.10;;;0.90;;
21270;SDS011;10795;50.796;3.860;2022-08-06T02:27:56;3.67;;;1.27;;
21270;SDS011;10795;50.796;3.860;2022-08-06T02:30:23;2.60;;;0.90;;
21270;SDS011;10795;50.796;3.860;2022-08-06T02:32:50;3.70;;;1.08;;
21270;SDS011;10795;50.796;3.860;2022-08-06T02:35:16;2.40;;;1.00;;
21270;SDS011;10795;50.796;3.860;2022-08-06T02:37:50;3.90;;;1.10;;
21270;SDS011;10795;50.796;3.860;2022-08-06T02:40:27;2.92;;;1.00;;
21270;SDS011;10795;50.796;3.860;2022-08-06T02:42:59;2.20;;;1.10;;
21270;SDS011;10795;50.796;3.860;2022-08-06T02:45:33;1.40;;;1.00;;
21270;SDS011;10795;50.796;3.860;2022-08-06T02:48:08;3.22;;;0.90;;
21270;SDS011;10795;50.796;3.860;2022-08-06T02:50:44;2.35;;;1.15;;
21270;SDS011;10795;50.796;3.860;2022-08-06T02:53:22;2.55;;;1.02;;
21270;SDS011;10795;50.796;3.860;2022-08-06T02:56:04;1.45;;;1.08;;
21270;SDS011;10795;50.796;3.860;2022-08-06T02:58:42;2.63;;;1.10;;
21270;SDS011;10795;50.796;3.860;2022-08-06T03:01:14;2.03;;;1.00;;
21270;SDS011;10795;50.796;3.860;2022-08-06T03:03:46;1.75;;;0.95;;
21270;SDS011;10795;50.796;3.860;2022-08-06T03:06:14;6.03;;;2.00;;
21270;SDS011;10795;50.796;3.860;2022-08-06T03:08:42;2.30;;;1.13;;
21270;SDS011;10795;50.796;3.860;2022-08-06T03:11:08;2.45;;;1.20;;
21270;SDS011;10795;50.796;3.860;2022-08-06T03:13:37;3.88;;;1.30;;
21270;SDS011;10795;50.796;3.860;2022-08-06T03:16:04;3.08;;;1.17;;
21270;SDS011;10795;50.796;3.860;2022-08-06T03:18:32;2.28;;;1.45;;
21270;SDS011;10795;50.796;3.860;2022-08-06T03:20:59;4.35;;;1.40;;
21270;SDS011;10795;50.796;3.860;2022-08-06T03:23:27;2.97;;;1.30;;
21270;SDS011;10795;50.796;3.860;2022-08-06T03:25:55;2.20;;;1.15;;
21270;SDS011;10795;50.796;3.860;2022-08-06T03:28:22;2.40;;;1.20;;
21270;SDS011;10795;50.796;3.860;2022-08-06T03:30:50;2.58;;;1.20;;
21270;SDS011;10795;50.796;3.860;2022-08-06T03:33:17;2.38;;;1.20;;
21270;SDS011;10795;50.796;3.860;2022-08-06T03:35:44;3.63;;;1.08;;
21270;SDS011;10795;50.796;3.860;2022-08-06T03:38:11;4.60;;;1.20;;
21270;SDS011;10795;50.796;3.860;2022-08-06T03:40:38;2.85;;;1.30;;
21270;SDS011;10795;50.796;3.860;2022-08-06T03:43:07;1.40;;;0.80;;
21270;SDS011;10795;50.796;3.860;2022-08-06T03:45:35;2.63;;;1.30;;
21270;SDS011;10795;50.796;3.860;2022-08-06T03:48:03;2.38;;;0.95;;
21270;SDS011;10795;50.796;3.860;2022-08-06T03:50:33;3.05;;;1.10;;
21270;SDS011;10795;50.796;3.860;2022-08-06T03:53:03;4.38;;;1.30;;
21270;SDS011;10795;50.796;3.860;2022-08-06T03:55:32;2.00;;;1.23;;
21270;SDS011;10795;50.796;3.860;2022-08-06T03:58:04;3.15;;;1.20;;
21270;SDS011;10795;50.796;3.860;2022-08-06T04:00:35;2.05;;;1.20;;
21270;SDS011;10795;50.796;3.860;2022-08-06T04:03:05;2.28;;;1.20;;
21270;SDS011;10795;50.796;3.860;2022-08-06T04:05:33;2.55;;;1.08;;
21270;SDS011;10795;50.796;3.860;2022-08-06T04:08:05;3.30;;;1.15;;
21270;SDS011;10795;50.796;3.860;2022-08-06T04:10:40;1.40;;;1.20;;
21270;SDS011;10795;50.796;3.860;2022-08-06T04:13:08;6.18;;;1.50;;
21270;SDS011;10795;50.796;3.860;2022-08-06T04:15:37;2.97;;;1.00;;
21270;SDS011;10795;50.796;3.860;2022-08-06T04:18:07;2.20;;;1.05;;
21270;SDS011;10795;50.796;3.860;2022-08-06T04:20:35;2.10;;;1.10;;
21270;SDS011;10795;50.796;3.860;2022-08-06T04:23:03;2.67;;;0.88;;
21270;SDS011;10795;50.796;3.860;2022-08-06T04:25:30;2.50;;;1.00;;
21270;SDS011;10795;50.796;3.860;2022-08-06T04:28:00;2.90;;;0.93;;
21270;SDS011;10795;50.796;3.860;2022-08-06T04:30:27;4.47;;;1.10;;
21270;SDS011;10795;50.796;3.860;2022-08-06T04:32:53;2.05;;;0.98;;
21270;SDS011;10795;50.796;3.860;2022-08-06T04:35:19;5.03;;;1.35;;
21270;SDS011;10795;50.796;3.860;2022-08-06T04:37:46;1.40;;;0.95;;
21270;SDS011;10795;50.796;3.860;2022-08-06T04:40:13;1.88;;;1.10;;
21270;SDS011;10795;50.796;3.860;2022-08-06T04:42:39;1.27;;;1.00;;
21270;SDS011;10795;50.796;3.860;2022-08-06T04:45:08;2.92;;;0.90;;
21270;SDS011;10795;50.796;3.860;2022-08-06T04:47:34;2.83;;;1.20;;
21270;SDS011;10795;50.796;3.860;2022-08-06T04:50:01;2.45;;;1.10;;
21270;SDS011;10795;50.796;3.860;2022-08-06T04:52:28;1.92;;;1.20;;
21270;SDS011;10795;50.796;3.860;2022-08-06T04:54:54;3.58;;;1.15;;
21270;SDS011;10795;50.796;3.860;2022-08-06T04:57:20;3.47;;;1.15;;
21270;SDS011;10795;50.796;3.860;2022-08-06T04:59:46;1.60;;;1.20;;
21270;SDS011;10795;50.796;3.860;2022-08-06T05:02:12;2.65;;;1.20;;
21270;SDS011;10795;50.796;3.860;2022-08-06T05:04:37;2.88;;;1.48;;
21270;SDS011;10795;50.796;3.860;2022-08-06T05:07:23;2.17;;;1.08;;
21270;SDS011;10795;50.796;3.860;2022-08-06T05:09:57;6.57;;;1.30;;
21270;SDS011;10795;50.796;3.860;2022-08-06T05:12:37;3.42;;;1.70;;
21270;SDS011;10795;50.796;3.860;2022-08-06T05:15:19;1.67;;;1.33;;
21270;SDS011;10795;50.796;3.860;2022-08-06T05:20:52;4.57;;;1.30;;
21270;SDS011;10795;50.796;3.860;2022-08-06T05:23:21;8.70;;;1.27;;
21270;SDS011;10795;50.796;3.860;2022-08-06T05:25:59;3.80;;;1.30;;
21270;SDS011;10795;50.796;3.860;2022-08-06T05:28:25;4.03;;;1.23;;
21270;SDS011;10795;50.796;3.860;2022-08-06T05:30:51;2.70;;;1.25;;
21270;SDS011;10795;50.796;3.860;2022-08-06T05:33:31;2.10;;;1.17;;
21270;SDS011;10795;50.796;3.860;2022-08-06T05:36:01;6.50;;;1.35;;
21270;SDS011;10795;50.796;3.860;2022-08-06T05:38:29;1.35;;;0.90;;
21270;SDS011;10795;50.796;3.860;2022-08-06T05:40:55;2.08;;;1.20;;
21270;SDS011;10795;50.796;3.860;2022-08-06T05:43:21;2.00;;;1.30;;
21270;SDS011;10795;50.796;3.860;2022-08-06T05:45:49;2.78;;;1.30;;
21270;SDS011;10795;50.796;3.860;2022-08-06T05:48:17;3.10;;;1.50;;
21270;SDS011;10795;50.796;3.860;2022-08-06T05:50:54;2.20;;;1.63;;
21270;SDS011;10795;50.796;3.860;2022-08-06T05:53:25;4.18;;;1.50;;
21270;SDS011;10795;50.796;3.860;2022-08-06T05:55:56;4.13;;;1.50;;
21270;SDS011;10795;50.796;3.860;2022-08-06T05:58:30;3.30;;;1.70;;
21270;SDS011;10795;50.796;3.860;2022-08-06T06:01:01;3.67;;;1.80;;
21270;SDS011;10795;50.796;3.860;2022-08-06T06:03:30;2.15;;;0.70;;
21270;SDS011;10795;50.796;3.860;2022-08-06T06:05:57;5.45;;;1.50;;
21270;SDS011;10795;50.796;3.860;2022-08-06T06:08:25;2.00;;;1.40;;
21270;SDS011;10795;50.796;3.860;2022-08-06T06:10:51;4.30;;;1.80;;
21270;SDS011;10795;50.796;3.860;2022-08-06T06:13:22;4.38;;;1.60;;
21270;SDS011;10795;50.796;3.860;2022-08-06T06:15:51;5.25;;;1.40;;
21270;SDS011;10795;50.796;3.860;2022-08-06T06:21:14;3.38;;;1.90;;
21270;SDS011;10795;50.796;3.860;2022-08-06T06:24:11;4.35;;;1.42;;
21270;SDS011;10795;50.796;3.860;2022-08-06T06:26:45;5.18;;;1.65;;
21270;SDS011;10795;50.796;3.860;2022-08-06T06:29:56;4.85;;;1.63;;
21270;SDS011;10795;50.796;3.860;2022-08-06T06:35:50;3.13;;;1.13;;
21270;SDS011;10795;50.796;3.860;2022-08-06T06:38:25;4.32;;;1.70;;
21270;SDS011;10795;50.796;3.860;2022-08-06T06:44:19;4.07;;;1.90;;
21270;SDS011;10795;50.796;3.860;2022-08-06T06:49:32;5.72;;;1.70;;
21270;SDS011;10795;50.796;3.860;2022-08-06T06:52:05;5.13;;;1.60;;
21270;SDS011;10795;50.796;3.860;2022-08-06T06:54:40;4.15;;;1.75;;
21270;SDS011;10795;50.796;3.860;2022-08-06T06:57:11;5.65;;;1.30;;
21270;SDS011;10795;50.796;3.860;2022-08-06T06:59:45;9.38;;;2.05;;
21270;SDS011;10795;50.796;3.860;2022-08-06T07:02:16;5.47;;;1.80;;
21270;SDS011;10795;50.796;3.860;2022-08-06T07:07:12;6.18;;;1.65;;
21270;SDS011;10795;50.796;3.860;2022-08-06T07:09:38;81.88;;;5.03;;
21270;SDS011;10795;50.796;3.860;2022-08-06T07:12:06;7.35;;;1.67;;
21270;SDS011;10795;50.796;3.860;2022-08-06T07:14:35;4.47;;;1.75;;
21270;SDS011;10795;50.796;3.860;2022-08-06T07:17:02;5.47;;;2.03;;
21270;SDS011;10795;50.796;3.860;2022-08-06T07:19:30;3.63;;;1.65;;
21270;SDS011;10795;50.796;3.860;2022-08-06T07:21:57;5.63;;;2.10;;
21270;SDS011;10795;50.796;3.860;2022-08-06T07:24:23;5.63;;;1.98;;
21270;SDS011;10795;50.796;3.860;2022-08-06T07:26:51;4.35;;;1.80;;
21270;SDS011;10795;50.796;3.860;2022-08-06T07:29:20;3.70;;;1.08;;
21270;SDS011;10795;50.796;3.860;2022-08-06T07:31:47;3.03;;;1.20;;
21270;SDS011;10795;50.796;3.860;2022-08-06T07:34:14;6.43;;;1.35;;
21270;SDS011;10795;50.796;3.860;2022-08-06T07:36:52;4.55;;;1.38;;
21270;SDS011;10795;50.796;3.860;2022-08-06T07:39:23;4.07;;;1.60;;
21270;SDS011;10795;50.796;3.860;2022-08-06T07:41:52;3.10;;;1.00;;
21270;SDS011;10795;50.796;3.860;2022-08-06T07:44:20;3.67;;;1.00;;
21270;SDS011;10795;50.796;3.860;2022-08-06T07:46:48;2.33;;;0.73;;
21270;SDS011;10795;50.796;3.860;2022-08-06T07:49:20;2.25;;;0.90;;
21270;SDS011;10795;50.796;3.860;2022-08-06T07:54:16;3.45;;;0.95;;
21270;SDS011;10795;50.796;3.860;2022-08-06T07:56:43;2.47;;;0.88;;
21270;SDS011;10795;50.796;3.860;2022-08-06T07:59:10;6.45;;;1.00;;
21270;SDS011;10795;50.796;3.860;2022-08-06T08:01:36;4.63;;;1.05;;
21270;SDS011;10795;50.796;3.860;2022-08-06T08:04:06;5.63;;;1.33;;
21270;SDS011;10795;50.796;3.860;2022-08-06T08:06:55;8.25;;;1.33;;
21270;SDS011;10795;50.796;3.860;2022-08-06T08:09:25;5.95;;;0.90;;
21270;SDS011;10795;50.796;3.860;2022-08-06T08:11:52;6.07;;;1.02;;
21270;SDS011;10795;50.796;3.860;2022-08-06T08:14:20;3.78;;;0.80;;
21270;SDS011;10795;50.796;3.860;2022-08-06T08:16:47;4.47;;;0.70;;
21270;SDS011;10795;50.796;3.860;2022-08-06T08:21:50;3.75;;;0.60;;
21270;SDS011;10795;50.796;3.860;2022-08-06T08:24:17;3.40;;;0.80;;
21270;SDS011;10795;50.796;3.860;2022-08-06T08:26:44;1.58;;;0.60;;
21270;SDS011;10795;50.796;3.860;2022-08-06T08:29:10;4.53;;;0.75;;
21270;SDS011;10795;50.796;3.860;2022-08-06T08:31:36;3.22;;;0.50;;
21270;SDS011;10795;50.796;3.860;2022-08-06T08:34:02;2.15;;;0.57;;
21270;SDS011;10795;50.796;3.860;2022-08-06T08:36:31;1.52;;;0.60;;
21270;SDS011;10795;50.796;3.860;2022-08-06T08:38:58;2.95;;;0.88;;
21270;SDS011;10795;50.796;3.860;2022-08-06T08:41:25;1.67;;;0.50;;
21270;SDS011;10795;50.796;3.860;2022-08-06T08:43:55;3.65;;;0.60;;
21270;SDS011;10795;50.796;3.860;2022-08-06T08:46:27;2.33;;;0.55;;
21270;SDS011;10795;50.796;3.860;2022-08-06T08:48:58;5.45;;;0.90;;
21270;SDS011;10795;50.796;3.860;2022-08-06T08:51:31;1.45;;;0.70;;
21270;SDS011;10795;50.796;3.860;2022-08-06T08:54:00;3.05;;;0.82;;
21270;SDS011;10795;50.796;3.860;2022-08-06T08:56:29;3.17;;;0.85;;
21270;SDS011;10795;50.796;3.860;2022-08-06T08:59:03;5.78;;;1.30;;
21270;SDS011;10795;50.796;3.860;2022-08-06T09:01:32;5.93;;;1.02;;
21270;SDS011;10795;50.796;3.860;2022-08-06T09:04:01;2.92;;;0.80;;
21270;SDS011;10795;50.796;3.860;2022-08-06T09:06:28;2.10;;;0.77;;
21270;SDS011;10795;50.796;3.860;2022-08-06T09:08:55;5.80;;;0.95;;
21270;SDS011;10795;50.796;3.860;2022-08-06T09:11:28;3.85;;;0.60;;
21270;SDS011;10795;50.796;3.860;2022-08-06T09:13:54;2.88;;;0.47;;
21270;SDS011;10795;50.796;3.860;2022-08-06T09:16:20;2.65;;;0.77;;
21270;SDS011;10795;50.796;3.860;2022-08-06T09:18:46;7.60;;;0.90;;
21270;SDS011;10795;50.796;3.860;2022-08-06T09:21:12;2.10;;;0.50;;
21270;SDS011;10795;50.796;3.860;2022-08-06T09:23:38;5.30;;;0.90;;
21270;SDS011;10795;50.796;3.860;2022-08-06T09:26:05;1.58;;;0.70;;
21270;SDS011;10795;50.796;3.860;2022-08-06T09:28:35;3.40;;;0.80;;
21270;SDS011;10795;50.796;3.860;2022-08-06T09:31:07;4.82;;;0.80;;
21270;SDS011;10795;50.796;3.860;2022-08-06T09:33:38;1.58;;;0.70;;
21270;SDS011;10795;50.796;3.860;2022-08-06T09:36:07;2.95;;;0.47;;
21270;SDS011;10795;50.796;3.860;2022-08-06T09:38:47;2.25;;;0.50;;
21270;SDS011;10795;50.796;3.860;2022-08-06T09:41:22;5.22;;;0.85;;
21270;SDS011;10795;50.796;3.860;2022-08-06T09:43:50;3.03;;;0.80;;
21270;SDS011;10795;50.796;3.860;2022-08-06T09:46:18;1.83;;;0.80;;
21270;SDS011;10795;50.796;3.860;2022-08-06T09:49:10;2.75;;;0.70;;
21270;SDS011;10795;50.796;3.860;2022-08-06T09:51:38;2.00;;;0.50;;
21270;SDS011;10795;50.796;3.860;2022-08-06T09:54:06;2.33;;;0.50;;
21270;SDS011;10795;50.796;3.860;2022-08-06T09:56:35;3.15;;;0.80;;
21270;SDS011;10795;50.796;3.860;2022-08-06T09:59:02;1.95;;;0.55;;
21270;SDS011;10795;50.796;3.860;2022-08-06T10:01:37;1.98;;;0.50;;
21270;SDS011;10795;50.796;3.860;2022-08-06T10:04:03;2.92;;;0.77;;
21270;SDS011;10795;50.796;3.860;2022-08-06T10:06:29;2.58;;;0.52;;
21270;SDS011;10795;50.796;3.860;2022-08-06T10:09:05;2.15;;;0.47;;
21270;SDS011;10795;50.796;3.860;2022-08-06T10:11:38;1.63;;;0.50;;
21270;SDS011;10795;50.796;3.860;2022-08-06T10:14:05;1.15;;;0.40;;
21270;SDS011;10795;50.796;3.860;2022-08-06T10:19:37;1.10;;;0.32;;
21270;SDS011;10795;50.796;3.860;2022-08-06T10:22:07;3.28;;;0.60;;
21270;SDS011;10795;50.796;3.860;2022-08-06T10:24:39;2.22;;;0.50;;
21270;SDS011;10795;50.796;3.860;2022-08-06T10:27:10;1.55;;;0.50;;
21270;SDS011;10795;50.796;3.860;2022-08-06T10:29:39;1.43;;;0.50;;
21270;SDS011;10795;50.796;3.860;2022-08-06T10:32:09;2.50;;;0.43;;
21270;SDS011;10795;50.796;3.860;2022-08-06T10:34:39;1.90;;;0.70;;
21270;SDS011;10795;50.796;3.860;2022-08-06T10:37:06;1.52;;;0.70;;
21270;SDS011;10795;50.796;3.860;2022-08-06T10:39:35;4.38;;;0.75;;
21270;SDS011;10795;50.796;3.860;2022-08-06T10:42:05;5.22;;;1.20;;
21270;SDS011;10795;50.796;3.860;2022-08-06T10:44:31;1.02;;;0.63;;
21270;SDS011;10795;50.796;3.860;2022-08-06T10:47:00;1.80;;;0.70;;
21270;SDS011;10795;50.796;3.860;2022-08-06T10:49:26;0.85;;;0.50;;
21270;SDS011;10795;50.796;3.860;2022-08-06T10:51:54;1.58;;;0.88;;
21270;SDS011;10795;50.796;3.860;2022-08-06T10:54:21;2.75;;;0.80;;
21270;SDS011;10795;50.796;3.860;2022-08-06T10:56:48;1.80;;;0.70;;
21270;SDS011;10795;50.796;3.860;2022-08-06T10:59:15;2.53;;;0.68;;
21270;SDS011;10795;50.796;3.860;2022-08-06T11:01:54;2.60;;;0.95;;
21270;SDS011;10795;50.796;3.860;2022-08-06T11:15:40;4.95;;;0.80;;
21270;SDS011;10795;50.796;3.860;2022-08-06T11:18:08;0.85;;;0.60;;
21270;SDS011;10795;50.796;3.860;2022-08-06T11:20:36;2.50;;;0.65;;
21270;SDS011;10795;50.796;3.860;2022-08-06T11:25:38;4.18;;;0.75;;
21270;SDS011;10795;50.796;3.860;2022-08-06T11:28:07;0.50;;;0.50;;
21270;SDS011;10795;50.796;3.860;2022-08-06T11:30:38;1.30;;;0.55;;
21270;SDS011;10795;50.796;3.860;2022-08-06T11:33:18;1.13;;;0.63;;
21270;SDS011;10795;50.796;3.860;2022-08-06T11:36:03;1.10;;;0.52;;
21270;SDS011;10795;50.796;3.860;2022-08-06T11:46:30;1.65;;;0.70;;
21270;SDS011;10795;50.796;3.860;2022-08-06T12:00:10;2.95;;;0.98;;
21270;SDS011;10795;50.796;3.860;2022-08-06T12:07:38;0.93;;;0.40;;
21270;SDS011;10795;50.796;3.860;2022-08-06T12:20:33;0.57;;;0.40;;
21270;SDS011;10795;50.796;3.860;2022-08-06T12:23:05;1.25;;;0.55;;
21270;SDS011;10795;50.796;3.860;2022-08-06T12:25:44;0.95;;;0.60;;
21270;SDS011;10795;50.796;3.860;2022-08-06T12:30:41;1.58;;;0.50;;
21270;SDS011;10795;50.796;3.860;2022-08-06T12:33:11;1.30;;;0.50;;
21270;SDS011;10795;50.796;3.860;2022-08-06T12:38:33;1.30;;;0.63;;
21270;SDS011;10795;50.796;3.860;2022-08-06T12:41:01;2.30;;;0.50;;
21270;SDS011;10795;50.796;3.860;2022-08-06T12:43:27;1.33;;;0.50;;
21270;SDS011;10795;50.796;3.860;2022-08-06T12:48:24;1.45;;;0.40;;
21270;SDS011;10795;50.796;3.860;2022-08-06T12:51:00;1.50;;;0.50;;
21270;SDS011;10795;50.796;3.860;2022-08-06T12:53:30;1.85;;;0.60;;
21270;SDS011;10795;50.796;3.860;2022-08-06T12:55:57;0.80;;;0.45;;
21270;SDS011;10795;50.796;3.860;2022-08-06T12:58:29;1.05;;;0.50;;
21270;SDS011;10795;50.796;3.860;2022-08-06T13:00:58;1.38;;;0.40;;
21270;SDS011;10795;50.796;3.860;2022-08-06T13:03:25;0.77;;;0.35;;
21270;SDS011;10795;50.796;3.860;2022-08-06T13:05:54;0.73;;;0.40;;
21270;SDS011;10795;50.796;3.860;2022-08-06T13:08:26;2.03;;;0.50;;
21270;SDS011;10795;50.796;3.860;2022-08-06T13:10:53;0.52;;;0.40;;
21270;SDS011;10795;50.796;3.860;2022-08-06T13:13:21;0.93;;;0.37;;
21270;SDS011;10795;50.796;3.860;2022-08-06T13:16:09;1.52;;;0.52;;
21270;SDS011;10795;50.796;3.860;2022-08-06T13:18:39;2.53;;;0.73;;
21270;SDS011;10795;50.796;3.860;2022-08-06T13:21:16;3.67;;;0.55;;
21270;SDS011;10795;50.796;3.860;2022-08-06T13:23:50;0.85;;;0.40;;
21270;SDS011;10795;50.796;3.860;2022-08-06T13:31:40;0.40;;;0.40;;
21270;SDS011;10795;50.796;3.860;2022-08-06T13:34:08;1.17;;;0.30;;
21270;SDS011;10795;50.796;3.860;2022-08-06T13:36:36;1.67;;;0.53;;
21270;SDS011;10795;50.796;3.860;2022-08-06T13:39:21;2.45;;;0.60;;
21270;SDS011;10795;50.796;3.860;2022-08-06T13:42:10;0.77;;;0.32;;
21270;SDS011;10795;50.796;3.860;2022-08-06T13:44:37;0.30;;;0.25;;
21270;SDS011;10795;50.796;3.860;2022-08-06T13:47:05;1.60;;;0.50;;
21270;SDS011;10795;50.796;3.860;2022-08-06T13:49:32;1.00;;;0.50;;
21270;SDS011;10795;50.796;3.860;2022-08-06T13:51:59;2.53;;;0.60;;
21270;SDS011;10795;50.796;3.860;2022-08-06T13:54:25;1.85;;;0.40;;
21270;SDS011;10795;50.796;3.860;2022-08-06T13:56:53;0.63;;;0.40;;
21270;SDS011;10795;50.796;3.860;2022-08-06T13:59:20;1.20;;;0.30;;
21270;SDS011;10795;50.796;3.860;2022-08-06T14:01:47;0.80;;;0.50;;
21270;SDS011;10795;50.796;3.860;2022-08-06T14:04:15;2.03;;;0.68;;
21270;SDS011;10795;50.796;3.860;2022-08-06T14:06:43;4.32;;;0.60;;
21270;SDS011;10795;50.796;3.860;2022-08-06T14:09:10;2.28;;;0.70;;
21270;SDS011;10795;50.796;3.860;2022-08-06T14:11:36;1.10;;;0.70;;
21270;SDS011;10795;50.796;3.860;2022-08-06T14:14:01;0.68;;;0.60;;
21270;SDS011;10795;50.796;3.860;2022-08-06T14:16:27;0.85;;;0.50;;
21270;SDS011;10795;50.796;3.860;2022-08-06T14:18:53;1.38;;;0.70;;
21270;SDS011;10795;50.796;3.860;2022-08-06T14:21:20;0.95;;;0.60;;
21270;SDS011;10795;50.796;3.860;2022-08-06T14:23:46;1.17;;;0.60;;
21270;SDS011;10795;50.796;3.860;2022-08-06T14:26:11;0.70;;;0.70;;
21270;SDS011;10795;50.796;3.860;2022-08-06T14:28:37;0.70;;;0.60;;
21270;SDS011;10795;50.796;3.860;2022-08-06T14:31:03;1.65;;;0.77;;
21270;SDS011;10795;50.796;3.860;2022-08-06T14:33:29;0.98;;;0.50;;
21270;SDS011;10795;50.796;3.860;2022-08-06T14:35:55;1.98;;;0.80;;
21270;SDS011;10795;50.796;3.860;2022-08-06T14:38:20;0.70;;;0.65;;
21270;SDS011;10795;50.796;3.860;2022-08-06T14:40:47;0.98;;;0.88;;
21270;SDS011;10795;50.796;3.860;2022-08-06T14:43:31;0.90;;;0.70;;
21270;SDS011;10795;50.796;3.860;2022-08-06T14:46:27;1.17;;;0.73;;
21270;SDS011;10795;50.796;3.860;2022-08-06T14:48:53;1.35;;;1.10;;
21270;SDS011;10795;50.796;3.860;2022-08-06T14:51:19;1.20;;;0.90;;
21270;SDS011;10795;50.796;3.860;2022-08-06T14:53:45;2.80;;;1.20;;
21270;SDS011;10795;50.796;3.860;2022-08-06T14:56:11;2.53;;;1.25;;
21270;SDS011;10795;50.796;3.860;2022-08-06T14:58:37;2.15;;;1.20;;
21270;SDS011;10795;50.796;3.860;2022-08-06T15:01:02;1.42;;;1.20;;
21270;SDS011;10795;50.796;3.860;2022-08-06T15:03:28;1.40;;;1.30;;
21270;SDS011;10795;50.796;3.860;2022-08-06T15:05:54;1.40;;;1.30;;
21270;SDS011;10795;50.796;3.860;2022-08-06T15:08:21;3.65;;;1.60;;
21270;SDS011;10795;50.796;3.860;2022-08-06T15:10:47;2.50;;;1.60;;
21270;SDS011;10795;50.796;3.860;2022-08-06T15:13:12;2.78;;;1.90;;
21270;SDS011;10795;50.796;3.860;2022-08-06T15:15:38;4.90;;;1.73;;
21270;SDS011;10795;50.796;3.860;2022-08-06T15:18:04;1.42;;;1.30;;
21270;SDS011;10795;50.796;3.860;2022-08-06T15:20:30;1.65;;;1.52;;
21270;SDS011;10795;50.796;3.860;2022-08-06T15:22:56;2.65;;;1.40;;
21270;SDS011;10795;50.796;3.860;2022-08-06T15:25:22;1.50;;;1.40;;
21270;SDS011;10795;50.796;3.860;2022-08-06T15:27:48;1.95;;;1.42;;
21270;SDS011;10795;50.796;3.860;2022-08-06T15:30:14;2.75;;;1.50;;
21270;SDS011;10795;50.796;3.860;2022-08-06T15:32:40;2.17;;;1.40;;
21270;SDS011;10795;50.796;3.860;2022-08-06T15:35:06;1.90;;;1.10;;
21270;SDS011;10795;50.796;3.860;2022-08-06T15:37:32;1.65;;;0.95;;
21270;SDS011;10795;50.796;3.860;2022-08-06T15:39:58;2.65;;;1.10;;
21270;SDS011;10795;50.796;3.860;2022-08-06T15:42:24;1.27;;;0.90;;
21270;SDS011;10795;50.796;3.860;2022-08-06T15:44:53;3.95;;;1.20;;
21270;SDS011;10795;50.796;3.860;2022-08-06T15:47:20;1.43;;;1.00;;
21270;SDS011;10795;50.796;3.860;2022-08-06T15:49:46;1.75;;;1.02;;
21270;SDS011;10795;50.796;3.860;2022-08-06T15:52:12;1.45;;;0.93;;
21270;SDS011;10795;50.796;3.860;2022-08-06T15:54:37;1.00;;;0.90;;
21270;SDS011;10795;50.796;3.860;2022-08-06T15:57:03;1.25;;;1.00;;
21270;SDS011;10795;50.796;3.860;2022-08-06T15:59:29;2.33;;;0.90;;
21270;SDS011;10795;50.796;3.860;2022-08-06T16:01:55;1.60;;;1.00;;
21270;SDS011;10795;50.796;3.860;2022-08-06T16:04:21;1.63;;;1.10;;
21270;SDS011;10795;50.796;3.860;2022-08-06T16:06:47;2.28;;;0.95;;
21270;SDS011;10795;50.796;3.860;2022-08-06T16:09:12;2.78;;;1.00;;
21270;SDS011;10795;50.796;3.860;2022-08-06T16:11:38;1.45;;;1.00;;
21270;SDS011;10795;50.796;3.860;2022-08-06T16:14:05;1.75;;;0.98;;
21270;SDS011;10795;50.796;3.860;2022-08-06T16:16:30;2.00;;;1.00;;
21270;SDS011;10795;50.796;3.860;2022-08-06T16:18:56;1.17;;;1.00;;
21270;SDS011;10795;50.796;3.860;2022-08-06T16:21:23;1.70;;;1.17;;
21270;SDS011;10795;50.796;3.860;2022-08-06T16:23:49;2.47;;;0.90;;
21270;SDS011;10795;50.796;3.860;2022-08-06T16:26:18;1.15;;;0.90;;
21270;SDS011;10795;50.796;3.860;2022-08-06T16:28:45;2.38;;;1.00;;
21270;SDS011;10795;50.796;3.860;2022-08-06T16:31:11;2.88;;;1.10;;
21270;SDS011;10795;50.796;3.860;2022-08-06T16:33:37;4.68;;;1.10;;
21270;SDS011;10795;50.796;3.860;2022-08-06T16:36:03;1.30;;;0.80;;
21270;SDS011;10795;50.796;3.860;2022-08-06T16:38:29;2.67;;;1.20;;